createdAt,value
2022-07-30T00:01:28.559Z,22.00
2022-07-30T00:04:17.086Z,21.96
2022-07-30T00:07:05.476Z,21.80
2022-07-30T00:09:53.884Z,21.77
2022-07-30T00:12:42.338Z,21.69
2022-07-30T00:15:32.319Z,21.63
2022-07-30T00:18:22.336Z,21.62
2022-07-30T00:21:11.102Z,21.58
2022-07-30T00:24:01.813Z,21.61
2022-07-30T00:26:50.732Z,21.67
2022-07-30T00:29:39.168Z,21.68
2022-07-30T00:32:34.906Z,21.67
2022-07-30T00:35:23.554Z,21.69
2022-07-30T00:38:12.597Z,21.51
2022-07-30T00:41:01.124Z,21.35
2022-07-30T00:43:49.641Z,21.51
2022-07-30T00:46:40.245Z,21.52
2022-07-30T00:49:30.304Z,21.60
2022-07-30T00:52:18.853Z,21.62
2022-07-30T00:55:09.828Z,21.54
2022-07-30T00:57:58.386Z,21.65
2022-07-30T01:00:46.802Z,21.67
2022-07-30T01:03:35.218Z,21.75
2022-07-30T01:06:25.207Z,21.81
2022-07-30T01:09:13.767Z,21.79
2022-07-30T01:12:02.716Z,21.88
2022-07-30T01:14:51.478Z,21.97
2022-07-30T01:17:40.492Z,21.75
2022-07-30T01:20:33.628Z,21.81
2022-07-30T01:23:28.926Z,21.92
2022-07-30T01:26:22.269Z,21.79
2022-07-30T01:29:14.484Z,21.76
2022-07-30T01:32:04.004Z,22.02
2022-07-30T01:34:54.726Z,22.11
2022-07-30T01:37:45.785Z,21.82
2022-07-30T01:40:36.239Z,21.99
2022-07-30T01:43:26.892Z,22.07
2022-07-30T01:46:17.729Z,22.01
2022-07-30T01:49:10.775Z,22.00
2022-07-30T01:52:01.213Z,22.09
2022-07-30T01:54:52.318Z,22.08
2022-07-30T01:57:41.705Z,22.05
2022-07-30T02:00:34.142Z,21.85
2022-07-30T02:03:22.730Z,22.00
2022-07-30T02:06:18.966Z,22.05
2022-07-30T02:09:11.152Z,22.06
2022-07-30T02:12:20.905Z,21.94
2022-07-30T02:15:15.734Z,21.93
2022-07-30T02:18:11.974Z,21.96
2022-07-30T02:21:07.208Z,21.90
2022-07-30T02:23:57.586Z,21.85
2022-07-30T02:26:52.106Z,21.89
2022-07-30T02:29:41.492Z,21.79
2022-07-30T02:32:36.312Z,21.72
2022-07-30T02:35:28.716Z,21.77
2022-07-30T02:38:19.864Z,21.74
2022-07-30T02:41:11.024Z,21.87
2022-07-30T02:44:01.414Z,21.84
2022-07-30T02:46:52.512Z,21.78
2022-07-30T02:50:01.449Z,21.80
2022-07-30T02:52:53.097Z,21.80
2022-07-30T02:55:43.990Z,21.75
2022-07-30T02:58:37.972Z,21.84
2022-07-30T03:01:27.633Z,21.82
2022-07-30T03:04:20.030Z,21.91
2022-07-30T03:07:10.785Z,21.96
2022-07-30T03:10:02.253Z,21.91
2022-07-30T03:12:52.515Z,21.97
2022-07-30T03:15:49.011Z,21.93
2022-07-30T03:18:40.351Z,21.95
2022-07-30T03:21:30.183Z,22.02
2022-07-30T03:24:20.238Z,22.11
2022-07-30T03:27:11.047Z,22.06
2022-07-30T03:30:02.342Z,22.02
2022-07-30T03:32:51.924Z,22.04
2022-07-30T03:35:42.794Z,22.05
2022-07-30T03:38:32.299Z,22.03
2022-07-30T03:41:22.221Z,22.09
2022-07-30T03:44:13.119Z,22.01
2022-07-30T03:47:06.291Z,21.96
2022-07-30T03:50:00.670Z,21.97
2022-07-30T03:52:49.997Z,21.94
2022-07-30T03:55:39.419Z,21.92
2022-07-30T03:59:00.217Z,21.89
2022-07-30T04:01:50.143Z,21.96
2022-07-30T04:05:08.597Z,21.92
2022-07-30T04:07:57.056Z,21.95
2022-07-30T04:10:49.447Z,22.05
2022-07-30T04:13:56.336Z,22.13
2022-07-30T04:16:51.889Z,22.07
2022-07-30T04:19:49.444Z,22.08
2022-07-30T04:22:38.899Z,21.93
2022-07-30T04:25:29.591Z,22.03
2022-07-30T04:28:21.033Z,22.22
2022-07-30T04:31:09.839Z,22.23
2022-07-30T04:34:04.627Z,22.25
2022-07-30T04:37:00.517Z,22.32
2022-07-30T04:39:54.245Z,22.33
2022-07-30T04:42:43.011Z,22.32
2022-07-30T04:45:33.295Z,22.37
2022-07-30T04:48:23.131Z,22.44
2022-07-30T04:51:42.196Z,22.52
2022-07-30T04:54:39.001Z,22.58
2022-07-30T04:57:29.660Z,22.62
2022-07-30T05:00:18.700Z,22.50
2022-07-30T05:03:09.689Z,22.54
2022-07-30T05:05:58.854Z,22.64
2022-07-30T05:08:52.942Z,22.69
2022-07-30T05:11:42.711Z,22.77
2022-07-30T05:14:31.680Z,22.68
2022-07-30T05:17:20.125Z,22.76
2022-07-30T05:20:09.764Z,22.82
2022-07-30T05:23:16.732Z,22.76
2022-07-30T05:26:13.344Z,22.77
2022-07-30T05:29:06.969Z,22.83
2022-07-30T05:32:08.650Z,22.89
2022-07-30T05:34:59.348Z,22.94
2022-07-30T05:37:49.275Z,22.80
2022-07-30T05:40:38.603Z,22.91
2022-07-30T05:44:07.050Z,22.90
2022-07-30T05:46:55.430Z,22.98
2022-07-30T05:49:44.718Z,23.13
2022-07-30T05:52:35.884Z,23.22
2022-07-30T05:55:36.601Z,23.16
2022-07-30T05:58:33.217Z,23.39
2022-07-30T06:01:23.301Z,23.28
2022-07-30T06:04:11.965Z,23.47
2022-07-30T06:07:07.359Z,23.44
2022-07-30T06:10:00.131Z,23.64
2022-07-30T06:12:49.234Z,23.77
2022-07-30T06:15:39.795Z,23.72
2022-07-30T06:18:29.736Z,23.82
2022-07-30T06:21:18.935Z,23.95
2022-07-30T06:24:29.760Z,24.01
2022-07-30T06:27:26.081Z,24.08
2022-07-30T06:30:15.940Z,24.20
2022-07-30T06:33:04.463Z,24.36
2022-07-30T06:35:54.341Z,24.45
2022-07-30T06:38:45.952Z,24.55
2022-07-30T06:41:37.325Z,24.70
2022-07-30T06:44:25.675Z,24.75
2022-07-30T06:47:28.547Z,24.86
2022-07-30T06:50:20.451Z,25.00
2022-07-30T06:53:10.186Z,24.94
2022-07-30T06:56:21.697Z,25.19
2022-07-30T06:59:15.192Z,25.16
2022-07-30T07:02:22.528Z,25.24
2022-07-30T07:05:33.869Z,25.36
2022-07-30T07:08:25.241Z,25.57
2022-07-30T07:11:15.783Z,25.74
2022-07-30T07:14:15.167Z,25.78
2022-07-30T07:17:03.777Z,25.94
2022-07-30T07:20:11.656Z,26.03
2022-07-30T07:23:12.368Z,26.16
2022-07-30T07:26:03.807Z,26.32
2022-07-30T07:28:53.554Z,26.34
2022-07-30T07:32:05.399Z,26.50
2022-07-30T07:34:50.615Z,26.64
2022-07-30T07:37:39.242Z,26.72
2022-07-30T07:40:28.816Z,26.62
2022-07-30T07:43:19.967Z,26.64
2022-07-30T07:46:08.846Z,26.75
2022-07-30T07:48:57.994Z,26.56
2022-07-30T07:51:55.714Z,26.69
2022-07-30T07:54:44.821Z,26.80
2022-07-30T07:57:33.218Z,26.89
2022-07-30T08:00:23.429Z,27.03
2022-07-30T08:03:12.544Z,26.86
2022-07-30T08:06:06.289Z,26.96
2022-07-30T08:09:13.670Z,26.95
2022-07-30T08:12:23.507Z,27.08
2022-07-30T08:15:32.676Z,26.94
2022-07-30T08:18:56.178Z,27.14
2022-07-30T08:21:59.769Z,26.80
2022-07-30T08:24:51.967Z,26.86
2022-07-30T08:27:40.494Z,26.91
2022-07-30T08:30:33.038Z,26.97
2022-07-30T08:33:21.722Z,26.88
2022-07-30T08:36:16.033Z,26.83
2022-07-30T08:39:04.750Z,26.96
2022-07-30T08:41:53.959Z,26.98
2022-07-30T08:44:45.530Z,26.99
2022-07-30T08:47:39.535Z,26.99
2022-07-30T08:50:33.765Z,26.69
2022-07-30T08:53:56.398Z,26.55
2022-07-30T08:56:46.188Z,26.74
2022-07-30T08:59:59.179Z,26.53
2022-07-30T09:02:44.931Z,26.73
2022-07-30T09:05:34.580Z,26.62
2022-07-30T09:08:23.129Z,27.18
2022-07-30T09:11:12.492Z,27.41
2022-07-30T09:14:10.164Z,27.53
2022-07-30T09:16:59.315Z,27.66
2022-07-30T09:20:05.354Z,27.90
2022-07-30T09:22:58.819Z,28.13
2022-07-30T09:25:48.640Z,28.08
2022-07-30T09:28:56.100Z,28.20
2022-07-30T09:32:06.991Z,28.53
2022-07-30T09:35:16.450Z,28.47
2022-07-30T09:38:24.031Z,28.54
2022-07-30T09:41:47.775Z,28.67
2022-07-30T09:44:37.232Z,28.95
2022-07-30T09:47:32.608Z,28.87
2022-07-30T09:50:30.295Z,29.15
2022-07-30T09:53:22.499Z,29.09
2022-07-30T09:56:25.763Z,29.18
2022-07-30T09:59:28.546Z,29.13
2022-07-30T10:02:32.217Z,29.19
2022-07-30T10:05:51.382Z,29.16
2022-07-30T10:08:46.122Z,28.91
2022-07-30T10:11:36.446Z,29.25
2022-07-30T10:14:33.900Z,29.38
2022-07-30T10:17:32.854Z,29.41
2022-07-30T10:20:53.147Z,29.64
2022-07-30T10:24:11.824Z,29.76
2022-07-30T10:27:21.577Z,29.57
2022-07-30T10:30:32.126Z,29.79
2022-07-30T10:33:34.780Z,29.88
2022-07-30T10:36:28.398Z,30.08
2022-07-30T10:39:21.671Z,30.18
2022-07-30T10:42:28.584Z,30.36
2022-07-30T10:45:19.798Z,30.47
2022-07-30T10:48:08.448Z,30.33
2022-07-30T10:50:59.969Z,30.13
2022-07-30T10:53:51.072Z,30.33
2022-07-30T10:56:40.542Z,30.45
2022-07-30T10:59:30.079Z,30.20
2022-07-30T11:02:20.752Z,30.37
2022-07-30T11:05:44.244Z,30.17
2022-07-30T11:08:42.772Z,30.50
2022-07-30T11:12:02.311Z,30.50
2022-07-30T11:15:06.908Z,30.65
2022-07-30T11:18:12.665Z,30.88
2022-07-30T11:21:22.798Z,30.70
2022-07-30T11:24:41.010Z,30.95
2022-07-30T11:27:41.457Z,30.78
2022-07-30T11:30:36.195Z,30.74
2022-07-30T11:33:32.030Z,30.79
2022-07-30T11:36:21.319Z,30.64
2022-07-30T11:39:12.818Z,30.68
2022-07-30T11:42:25.848Z,30.82
2022-07-30T11:45:30.960Z,30.90
2022-07-30T11:48:21.358Z,30.80
2022-07-30T11:51:10.101Z,30.92
2022-07-30T11:54:02.778Z,31.05
2022-07-30T11:56:53.136Z,31.12
2022-07-30T11:59:54.442Z,30.90
2022-07-30T12:02:45.600Z,30.93
2022-07-30T12:05:34.139Z,31.27
2022-07-30T12:08:33.451Z,31.38
2022-07-30T12:11:24.947Z,31.17
2022-07-30T12:14:14.179Z,31.63
2022-07-30T12:17:03.003Z,31.52
2022-07-30T12:19:53.114Z,31.31
2022-07-30T12:22:41.758Z,31.25
2022-07-30T12:25:30.553Z,31.31
2022-07-30T12:28:23.991Z,31.49
2022-07-30T12:31:16.626Z,31.37
2022-07-30T12:34:05.117Z,31.69
2022-07-30T12:36:56.013Z,32.38
2022-07-30T12:39:44.498Z,32.54
2022-07-30T12:42:32.999Z,32.98
2022-07-30T12:45:29.615Z,32.41
2022-07-30T12:48:38.248Z,32.56
2022-07-30T12:51:29.787Z,32.24
2022-07-30T12:54:21.264Z,31.81
2022-07-30T12:57:09.603Z,31.60
2022-07-30T13:00:07.367Z,31.42
2022-07-30T13:02:56.628Z,31.58
2022-07-30T13:05:49.940Z,31.60
2022-07-30T13:08:49.388Z,31.53
2022-07-30T13:11:48.776Z,31.45
2022-07-30T13:14:37.643Z,31.28
2022-07-30T13:17:26.044Z,30.86
2022-07-30T13:20:16.177Z,30.80
2022-07-30T13:23:04.689Z,30.77
2022-07-30T13:25:53.770Z,31.01
2022-07-30T13:28:43.752Z,31.13
2022-07-30T13:31:42.899Z,30.74
2022-07-30T13:34:32.004Z,30.03
2022-07-30T13:37:20.508Z,28.73
2022-07-30T13:40:12.463Z,26.17
2022-07-30T13:43:01.345Z,24.69
2022-07-30T13:45:52.330Z,23.81
2022-07-30T13:48:40.981Z,22.92
2022-07-30T13:51:29.668Z,22.76
2022-07-30T13:54:18.137Z,22.52
2022-07-30T13:57:06.608Z,22.41
2022-07-30T13:59:55.072Z,22.35
2022-07-30T14:02:45.113Z,21.67
2022-07-30T14:05:34.299Z,21.90
2022-07-30T14:08:22.858Z,22.38
2022-07-30T14:11:11.373Z,21.45
2022-07-30T14:13:59.895Z,21.56
2022-07-30T14:16:58.595Z,21.34
2022-07-30T14:19:50.374Z,21.78
2022-07-30T14:22:39.140Z,21.94
2022-07-30T14:25:27.624Z,21.58
2022-07-30T14:28:16.235Z,21.97
2022-07-30T14:31:04.727Z,22.56
2022-07-30T14:33:53.232Z,21.47
2022-07-30T14:36:43.833Z,22.10
2022-07-30T14:39:32.303Z,21.93
2022-07-30T14:42:21.159Z,21.72
2022-07-30T14:45:11.297Z,22.41
2022-07-30T14:47:59.837Z,22.28
2022-07-30T14:51:12.138Z,21.92
2022-07-30T14:54:00.656Z,21.78
2022-07-30T14:56:49.116Z,22.21
2022-07-30T14:59:37.582Z,22.29
2022-07-30T15:02:26.045Z,22.20
2022-07-30T15:05:14.424Z,22.48
2022-07-30T15:08:02.817Z,22.49
2022-07-30T15:10:52.709Z,22.60
2022-07-30T15:13:50.022Z,22.77
2022-07-30T15:16:39.207Z,22.36
2022-07-30T15:19:27.590Z,22.63
2022-07-30T15:22:15.993Z,23.04
2022-07-30T15:25:05.135Z,23.14
2022-07-30T15:27:55.033Z,22.64
2022-07-30T15:30:43.625Z,22.53
2022-07-30T15:33:36.694Z,22.92
2022-07-30T15:36:25.597Z,23.11
2022-07-30T15:39:15.485Z,22.94
2022-07-30T15:42:06.377Z,23.07
2022-07-30T15:45:16.163Z,23.21
2022-07-30T15:48:05.279Z,22.75
2022-07-30T15:50:53.728Z,22.84
2022-07-30T15:53:42.153Z,22.36
2022-07-30T15:56:33.403Z,22.43
2022-07-30T15:59:22.506Z,22.97
2022-07-30T16:02:12.499Z,23.01
2022-07-30T16:05:01.034Z,22.84
2022-07-30T16:07:50.647Z,23.00
2022-07-30T16:10:40.726Z,22.90
2022-07-30T16:13:29.186Z,22.86
2022-07-30T16:16:17.686Z,22.41
2022-07-30T16:19:07.784Z,22.16
2022-07-30T16:21:56.633Z,22.08
2022-07-30T16:24:45.234Z,21.94
2022-07-30T16:27:35.474Z,21.69
2022-07-30T16:30:27.599Z,21.30
2022-07-30T16:33:16.133Z,21.70
2022-07-30T16:36:06.302Z,22.35
2022-07-30T16:38:54.838Z,22.45
2022-07-30T16:41:43.505Z,21.36
2022-07-30T16:44:34.106Z,21.59
2022-07-30T16:47:22.631Z,21.63
2022-07-30T16:50:11.775Z,21.50
2022-07-30T16:53:01.769Z,21.02
2022-07-30T16:55:50.198Z,21.41
2022-07-30T16:58:38.802Z,21.15
2022-07-30T17:01:28.856Z,21.60
2022-07-30T17:04:17.819Z,20.81
2022-07-30T17:07:06.296Z,21.11
2022-07-30T17:09:56.008Z,21.44
2022-07-30T17:12:51.022Z,20.73
2022-07-30T17:15:40.358Z,21.04
2022-07-30T17:18:28.752Z,20.78
2022-07-30T17:21:17.609Z,20.56
2022-07-30T17:24:11.228Z,20.55
2022-07-30T17:27:01.343Z,20.66
2022-07-30T17:29:50.821Z,20.49
2022-07-30T17:32:39.446Z,20.81
2022-07-30T17:35:27.915Z,20.50
2022-07-30T17:38:16.422Z,21.05
2022-07-30T17:41:04.924Z,21.21
2022-07-30T17:43:54.685Z,20.66
2022-07-30T17:46:43.150Z,20.96
2022-07-30T17:49:31.507Z,20.90
2022-07-30T17:52:23.388Z,20.80
2022-07-30T17:55:14.785Z,20.56
2022-07-30T17:58:03.503Z,20.86
2022-07-30T18:00:53.399Z,20.28
2022-07-30T18:03:45.022Z,20.38
2022-07-30T18:06:33.770Z,20.42
2022-07-30T18:09:22.563Z,20.88
2022-07-30T18:12:11.169Z,20.78
2022-07-30T18:14:59.693Z,20.50
2022-07-30T18:17:49.687Z,20.32
2022-07-30T18:20:38.269Z,20.14
2022-07-30T18:23:36.694Z,20.05
2022-07-30T18:26:25.118Z,19.92
2022-07-30T18:29:14.214Z,20.39
2022-07-30T18:32:02.887Z,19.99
2022-07-30T18:34:53.147Z,20.32
2022-07-30T18:37:42.043Z,20.12
2022-07-30T18:40:30.776Z,20.17
2022-07-30T18:43:19.220Z,20.23
2022-07-30T18:46:08.691Z,20.08
2022-07-30T18:49:06.989Z,19.87
2022-07-30T18:52:09.019Z,20.34
2022-07-30T18:54:57.413Z,20.25
2022-07-30T18:57:46.302Z,19.90
2022-07-30T19:00:43.276Z,19.75
2022-07-30T19:03:31.906Z,19.76
2022-07-30T19:06:21.506Z,20.10
2022-07-30T19:09:17.190Z,20.28
2022-07-30T19:12:06.814Z,20.41
2022-07-30T19:14:56.182Z,20.21
2022-07-30T19:17:45.909Z,19.86
2022-07-30T19:20:35.316Z,19.96
2022-07-30T19:23:23.804Z,19.73
2022-07-30T19:26:14.663Z,19.42
2022-07-30T19:29:03.338Z,19.37
2022-07-30T19:31:51.890Z,19.69
2022-07-30T19:34:41.044Z,19.80
2022-07-30T19:37:29.530Z,19.70
2022-07-30T19:40:18.955Z,19.51
2022-07-30T19:43:10.220Z,19.56
2022-07-30T19:45:58.926Z,19.76
2022-07-30T19:48:47.920Z,19.84
2022-07-30T19:52:10.054Z,19.67
2022-07-30T19:54:48.302Z,19.73
2022-07-30T19:57:53.085Z,20.00
2022-07-30T20:00:48.495Z,20.01
2022-07-30T20:03:39.027Z,19.95
2022-07-30T20:06:28.241Z,19.73
2022-07-30T20:09:17.718Z,19.84
2022-07-30T20:12:06.382Z,19.90
2022-07-30T20:14:56.071Z,20.57
2022-07-30T20:17:46.555Z,20.46
2022-07-30T20:20:35.125Z,20.13
2022-07-30T20:23:24.997Z,20.02
2022-07-30T20:26:15.283Z,20.42
2022-07-30T20:29:03.782Z,20.21
2022-07-30T20:31:59.159Z,20.01
2022-07-30T20:34:49.060Z,19.96
2022-07-30T20:37:54.613Z,19.99
2022-07-30T20:40:46.817Z,19.67
2022-07-30T20:43:35.245Z,19.70
2022-07-30T20:46:40.178Z,20.10
2022-07-30T20:49:34.264Z,20.22
2022-07-30T20:52:25.731Z,19.86
2022-07-30T20:55:16.652Z,19.62
2022-07-30T20:58:12.590Z,19.76
2022-07-30T21:01:05.008Z,20.03
2022-07-30T21:03:53.493Z,19.77
2022-07-30T21:06:46.172Z,19.86
2022-07-30T21:09:52.029Z,19.80
2022-07-30T21:12:41.062Z,19.66
2022-07-30T21:15:33.802Z,19.04
2022-07-30T21:18:23.324Z,19.06
2022-07-30T21:21:12.215Z,19.01
2022-07-30T21:24:03.259Z,18.82
2022-07-30T21:26:54.166Z,19.26
2022-07-30T21:29:42.904Z,19.00
2022-07-30T21:32:31.390Z,18.86
2022-07-30T21:35:20.104Z,18.79
2022-07-30T21:38:09.001Z,18.81
2022-07-30T21:40:57.377Z,18.92
2022-07-30T21:43:49.342Z,18.67
2022-07-30T21:46:40.620Z,19.08
2022-07-30T21:49:31.625Z,19.18
2022-07-30T21:52:20.276Z,18.61
2022-07-30T21:55:09.800Z,18.58
2022-07-30T21:58:02.034Z,18.78
2022-07-30T22:01:17.348Z,18.78
2022-07-30T22:04:08.420Z,18.68
2022-07-30T22:07:00.486Z,18.69
2022-07-30T22:09:50.395Z,18.47
2022-07-30T22:12:39.131Z,18.22
2022-07-30T22:15:27.639Z,18.60
2022-07-30T22:18:17.847Z,18.48
2022-07-30T22:21:09.350Z,18.22
2022-07-30T22:23:59.861Z,18.72
2022-07-30T22:26:50.827Z,18.35
2022-07-30T22:29:42.649Z,18.53
2022-07-30T22:32:31.316Z,18.69
2022-07-30T22:35:33.941Z,18.62
2022-07-30T22:38:22.705Z,18.36
2022-07-30T22:41:14.197Z,18.32
2022-07-30T22:44:02.681Z,18.38
2022-07-30T22:46:56.334Z,18.92
2022-07-30T22:49:46.254Z,18.99
2022-07-30T22:52:56.966Z,19.10
2022-07-30T22:55:48.313Z,18.36
2022-07-30T22:58:36.728Z,18.29
2022-07-30T23:01:25.294Z,18.54
2022-07-30T23:04:14.425Z,18.63
2022-07-30T23:07:05.512Z,18.51
2022-07-30T23:09:55.269Z,18.28
2022-07-30T23:12:44.541Z,18.00
2022-07-30T23:15:33.398Z,18.05
2022-07-30T23:18:22.342Z,17.94
2022-07-30T23:21:10.816Z,18.02
2022-07-30T23:23:59.824Z,18.27
2022-07-30T23:26:50.513Z,18.19
2022-07-30T23:29:38.894Z,17.97
2022-07-30T23:32:27.418Z,17.81
2022-07-30T23:35:15.919Z,18.09
2022-07-30T23:38:04.486Z,17.65
2022-07-30T23:40:52.917Z,17.75
2022-07-30T23:43:42.804Z,18.11
2022-07-30T23:46:31.210Z,17.97
2022-07-30T23:49:19.719Z,17.70
2022-07-30T23:52:09.694Z,17.73
2022-07-30T23:54:59.300Z,17.17
2022-07-30T23:57:47.707Z,17.41
